Eielson Air Force Base, AK (99702)

8:12 PM AKDT on September 17, 2014 (GMT -0800)
Eielson Air Force Base | Change Station
CLOSE
Current Station
Airport
Location: Fairbanks Eiels,
Elevation: 548 ft
Nearby Weather Stations

Elev 548 ft 64.67 °N, 147.10 °W | Updated 14 minutes ago

Clear
Clear
57 °F
Feels Like 57 °F
N
12
Wind Variable Wind from SE

Today
High -- | Low -- °F
--% Chance of Precip.
Yesterday
High -- | Low -- °F
Precip. -- in
7:17 AM 8:06 PM
Waning Crescent, 30% visible
Pressure 29.27 in
Visibility 10.0 miles
Clouds Clear
Dew Point 33 °F
Humidity 40%
Rainfall 0.00 in
Snow Depth 2 in , 1 in , 0 in
UV 0 out of 12
Pollen Not available.
Air Quality Not available.
Flu Activity Not available.
METAR PAEI 180358Z AUTO 13010KT 10SM CLR 14/01 A2925 RMK AO2 SLP910 T01390006 $

More Conditions Fewer Conditions

Pressure 29.27 in
Visibility 10.0 miles
Clouds Clear
Dew Point 33 °F
Humidity 40%
Rainfall 0.00 in
Snow Depth 2 in , 1 in , 0 in
UV 0 out of 12
Pollen Not available.
Air Quality Not available.
Flu Activity Not available.
METAR PAEI 180358Z AUTO 13010KT 10SM CLR 14/01 A2925 RMK AO2 SLP910 T01390006 $

More Conditions Fewer Conditions

10-Day Weather Forecast

Almanac

Astronomy

Sep. 17, 2014 Rise Set
Actual Time 7:17 AM AKDT 8:06 PM AKDT
Civil Twilight 6:27 AM AKDT 8:55 PM AKDT
Nautical Twilight 5:25 AM AKDT 9:57 PM AKDT
Astronomical Twilight 4:09 AM AKDT 11:11 PM AKDT
Moon No Moon Rise 5:54 PM AKDT (9/17)
Length of Visible Light 14h 28m
Length of Day
12h 49m
Tomorrow will be 6m 34s shorter.
Waning Crescent, 30% of the Moon is Illuminated
Sep 18
Waning Crescent
Sep 24
New
Oct 1
First Quarter
Oct 8
Full
Oct 15
Last Quarter

Today's Extremes

State Highs State Lows

Community

WunderPhotos

Upload Photos

1,754,290 photos uploaded!

Nearby

Snow Depth

Station Depth Elevation
MF Bradley River 2 in 2300 ft
Munson Ridge 1 in 3100 ft
Grandview 0 in 1100 ft
Indian Pass 1 in 2300 ft
Upper Tsaina River 0 in 1750 ft

Earthquake Activity

City Distance Mag. Time & Date
No recent earthquake activity has been reported nearby.
Minimum magnitude displayed is 2.5.

Coastal Water Temperatures

Place Temperature
No Stations Reporting

Nearby Weather Stations